Time;durP1;ratioP1;P1;durP2;ratioP2;P2;SDS_P1;SDS_P2;PMS_P1;PMS_P2;Temp;Humidity;BMP_temperature;BMP_pressure;BME280_temperature;BME280_humidity;BME280_pressure;Samples;Min_cycle;Max_cycle;Signal;HPM_P1;HPM_P2
2023/04/05 03:00:33;;;;;;;1.27;0.75;;;15.50;50.80;;;;;;6184196;22;45838;31
2023/04/05 03:02:58;;;;;;;1.23;0.90;;;15.50;50.90;;;;;;4915696;28;45502;-64
2023/04/05 03:05:24;;;;;;;0.93;0.80;;;15.50;50.80;;;;;;4933988;28;45472;-65
2023/04/05 03:07:50;;;;;;;0.70;0.70;;;15.40;50.80;;;;;;4940051;28;46446;-66
2023/04/05 03:10:21;;;;;;;0.93;0.73;;;15.50;50.80;;;;;;4951643;28;46544;-66
2023/04/05 03:12:47;;;;;;;1.17;0.77;;;15.40;50.70;;;;;;4938941;28;45366;-65
2023/04/05 03:15:15;;;;;;;0.85;0.75;;;15.50;50.80;;;;;;4941107;28;45985;-64
2023/04/05 03:17:43;;;;;;;1.17;0.80;;;15.40;50.70;;;;;;4956130;28;45149;-64
2023/04/05 03:20:09;;;;;;;0.98;0.80;;;15.40;50.70;;;;;;4956990;28;46482;-65
2023/04/05 03:22:35;;;;;;;1.10;0.90;;;15.40;50.70;;;;;;4941192;28;45247;-65
2023/04/05 03:25:01;;;;;;;1.00;0.70;;;15.40;50.70;;;;;;4943846;28;45728;-65
2023/04/05 03:27:27;;;;;;;1.00;0.77;;;15.40;50.70;;;;;;4951970;28;45643;-67
2023/04/05 03:29:53;;;;;;;0.90;0.70;;;15.40;50.80;;;;;;4955331;28;47083;-65
2023/04/05 03:32:19;;;;;;;1.25;0.80;;;15.40;50.80;;;;;;4947465;28;45542;-68
2023/04/05 03:34:45;;;;;;;1.00;0.68;;;15.40;51.40;;;;;;4944789;28;46121;-66
2023/04/05 03:37:10;;;;;;;0.70;0.50;;;15.40;50.80;;;;;;4940918;28;45572;-65
2023/04/05 03:39:36;;;;;;;1.13;0.80;;;15.40;50.80;;;;;;4947684;28;46139;-65
2023/04/05 03:42:01;;;;;;;1.27;0.80;;;15.30;50.80;;;;;;4943166;28;45053;-65
2023/04/05 03:44:27;;;;;;;0.73;0.70;;;15.30;50.80;;;;;;4942640;28;46310;-64
2023/04/05 03:46:52;;;;;;;1.13;0.63;;;15.30;50.80;;;;;;4941550;28;45120;-65
2023/04/05 03:49:18;;;;;;;1.08;0.73;;;15.30;50.80;;;;;;4947267;28;45245;-65
2023/04/05 03:51:45;;;;;;;1.15;0.85;;;15.30;50.90;;;;;;4942582;28;45302;-65
2023/04/05 03:54:11;;;;;;;1.80;0.98;;;15.30;50.90;;;;;;4948384;28;45618;-65
2023/04/05 03:56:36;;;;;;;1.35;0.80;;;15.30;50.90;;;;;;4940956;28;45689;-66
2023/04/05 03:59:02;;;;;;;1.00;0.80;;;15.30;50.90;;;;;;4943502;28;46781;-67
2023/04/05 04:01:28;;;;;;;1.60;0.90;;;15.30;50.90;;;;;;4914884;28;44647;-67
2023/04/05 04:03:53;;;;;;;1.13;0.80;;;15.30;50.90;;;;;;4943389;28;45594;-65
2023/04/05 04:06:19;;;;;;;0.98;0.80;;;15.30;50.90;;;;;;4945105;28;45023;-64
2023/04/05 04:08:44;;;;;;;0.90;0.57;;;15.20;50.90;;;;;;4931896;28;45426;-66
2023/04/05 04:11:10;;;;;;;1.75;0.88;;;15.30;50.90;;;;;;4952197;28;45216;-66
2023/04/05 04:13:36;;;;;;;0.93;0.80;;;15.20;50.80;;;;;;4927575;28;46282;-65
2023/04/05 04:16:02;;;;;;;0.80;0.70;;;15.20;50.80;;;;;;4933911;28;45393;-65
2023/04/05 04:18:28;;;;;;;1.10;0.75;;;15.20;50.80;;;;;;4960043;28;45361;-65
2023/04/05 04:20:53;;;;;;;1.13;0.80;;;15.20;50.80;;;;;;4954145;28;45364;-65
2023/04/05 04:23:19;;;;;;;0.77;0.65;;;15.20;50.80;;;;;;4943900;28;45319;-66
2023/04/05 04:25:45;;;;;;;1.33;0.90;;;15.20;50.90;;;;;;4935176;28;45340;-64
2023/04/05 04:28:11;;;;;;;0.88;0.70;;;15.20;51.00;;;;;;4946578;28;45320;-64
2023/04/05 04:30:37;;;;;;;1.05;0.85;;;15.20;50.90;;;;;;4937343;28;45493;-66
2023/04/05 04:33:03;;;;;;;0.90;0.70;;;15.20;50.90;;;;;;4935709;28;45361;-66
2023/04/05 04:35:32;;;;;;;0.93;0.70;;;15.10;50.90;;;;;;4920792;28;45289;-64
2023/04/05 04:38:03;;;;;;;1.05;0.85;;;15.10;50.90;;;;;;4949215;28;46105;-65
2023/04/05 04:40:31;;;;;;;0.90;0.80;;;15.10;50.90;;;;;;4943661;28;45294;-64
2023/04/05 04:42:58;;;;;;;0.82;0.73;;;15.10;50.90;;;;;;4926006;28;45400;-65
2023/04/05 04:45:25;;;;;;;0.95;0.75;;;15.10;50.90;;;;;;4954124;28;45499;-66
2023/04/05 04:47:52;;;;;;;0.93;0.70;;;15.10;50.90;;;;;;4933508;28;46496;-66
2023/04/05 04:50:18;;;;;;;1.20;0.77;;;15.10;50.90;;;;;;4943011;28;45275;-68
2023/04/05 04:52:44;;;;;;;0.75;0.70;;;15.10;50.90;;;;;;4936187;28;45330;-66
2023/04/05 04:55:13;;;;;;;1.10;0.85;;;15.10;50.90;;;;;;4927215;28;45188;-66
2023/04/05 04:57:41;;;;;;;1.67;1.00;;;15.10;50.90;;;;;;4941729;28;45459;-66
2023/04/05 05:00:14;;;;;;;1.63;1.20;;;15.10;51.50;;;;;;4942626;28;45489;-68
2023/04/05 05:02:41;;;;;;;1.42;1.10;;;15.10;50.90;;;;;;4920847;28;45636;-69
2023/04/05 05:05:07;;;;;;;1.17;0.80;;;15.10;50.90;;;;;;4951798;28;45035;-67
2023/04/05 05:07:33;;;;;;;1.30;0.80;;;15.10;50.90;;;;;;4925995;28;46875;-65
2023/04/05 05:09:58;;;;;;;1.48;1.00;;;15.00;50.80;;;;;;4957365;28;45534;-64
2023/04/05 05:12:25;;;;;;;1.48;1.08;;;15.00;50.80;;;;;;4944760;28;45649;-67
2023/04/05 05:14:51;;;;;;;0.75;0.70;;;15.10;50.90;;;;;;4942847;28;45709;-66
2023/04/05 05:17:16;;;;;;;1.00;0.90;;;15.00;50.90;;;;;;4921157;28;46397;-65
2023/04/05 05:19:42;;;;;;;1.35;0.90;;;15.00;50.90;;;;;;4939897;28;45768;-64
2023/04/05 05:22:07;;;;;;;0.70;0.60;;;15.00;50.90;;;;;;4944130;28;45400;-67
2023/04/05 05:24:33;;;;;;;1.70;0.85;;;15.00;50.80;;;;;;4958483;28;45191;-65
2023/04/05 05:26:59;;;;;;;1.33;0.82;;;15.00;50.80;;;;;;4938100;28;46236;-66
2023/04/05 05:29:25;;;;;;;1.27;0.80;;;15.00;50.90;;;;;;4963986;28;45268;-64
2023/04/05 05:31:50;;;;;;;1.17;0.88;;;15.00;50.90;;;;;;4932301;28;45014;-65
2023/04/05 05:34:16;;;;;;;1.20;0.90;;;15.00;50.90;;;;;;4948178;28;45030;-65
2023/04/05 05:36:42;;;;;;;0.52;0.52;;;15.00;50.90;;;;;;4940182;28;46424;-66
2023/04/05 05:39:07;;;;;;;1.20;0.88;;;15.00;50.90;;;;;;4942044;28;46626;-65
2023/04/05 05:41:33;;;;;;;1.50;0.90;;;15.00;50.80;;;;;;4943036;28;45397;-66
2023/04/05 05:43:59;;;;;;;0.90;0.75;;;15.00;50.80;;;;;;4956298;28;45205;-66
2023/04/05 05:46:27;;;;;;;2.03;0.82;;;15.00;50.70;;;;;;4948162;28;45732;-65
2023/04/05 05:48:53;;;;;;;1.08;0.80;;;15.00;50.70;;;;;;4946355;28;45181;-65
2023/04/05 05:51:19;;;;;;;1.52;0.95;;;15.00;50.70;;;;;;4953162;28;45426;-65
2023/04/05 05:53:44;;;;;;;3.60;1.60;;;15.00;50.70;;;;;;4946556;28;44976;-64
2023/04/05 05:56:10;;;;;;;3.50;2.08;;;15.00;48.30;;;;;;4959956;28;46720;-67
2023/04/05 05:58:36;;;;;;;5.75;2.13;;;14.80;46.40;;;;;;4950585;28;45499;-64
2023/04/05 06:01:02;;;;;;;4.43;2.58;;;14.70;45.10;;;;;;4939928;28;45882;-64
2023/04/05 06:03:32;;;;;;;5.80;2.28;;;14.50;45.10;;;;;;4910031;28;45487;-63
2023/04/05 06:05:58;;;;;;;4.85;1.83;;;14.50;45.40;;;;;;4926256;28;46436;-62
2023/04/05 06:08:24;;;;;;;3.17;1.80;;;14.50;45.90;;;;;;4937703;28;45382;-62
2023/04/05 06:10:50;;;;;;;3.25;2.00;;;14.60;47.20;;;;;;4922476;28;45624;-63
2023/04/05 06:13:16;;;;;;;1.95;1.42;;;14.80;47.20;;;;;;4923973;28;45535;-63
2023/04/05 06:15:42;;;;;;;2.88;1.73;;;15.10;46.90;;;;;;4921792;28;47127;-62
2023/04/05 06:18:08;;;;;;;1.80;1.45;;;15.30;46.60;;;;;;4908044;28;44949;-60
2023/04/05 06:20:34;;;;;;;1.80;1.42;;;15.60;46.30;;;;;;4934218;23;44987;-62
2023/04/05 06:23:00;;;;;;;6.53;1.75;;;15.80;46.10;;;;;;4984901;28;45593;-62
2023/04/05 06:25:25;;;;;;;2.53;1.60;;;16.00;45.90;;;;;;4969104;28;45703;-60
2023/04/05 06:27:51;;;;;;;1.48;1.13;;;16.10;45.90;;;;;;4989410;28;45601;-62
2023/04/05 06:30:16;;;;;;;1.80;1.30;;;16.20;45.80;;;;;;5006978;28;45472;-63
2023/04/05 06:32:42;;;;;;;1.95;1.30;;;16.30;45.90;;;;;;4991009;28;45179;-62
2023/04/05 06:35:08;;;;;;;3.65;1.63;;;16.40;45.80;;;;;;4967018;28;46976;-64
2023/04/05 06:37:33;;;;;;;2.58;1.60;;;16.50;45.80;;;;;;4955623;28;45491;-61
2023/04/05 06:39:59;;;;;;;2.13;1.25;;;16.70;45.80;;;;;;4990317;28;45318;-60
2023/04/05 06:42:24;;;;;;;4.07;1.20;;;16.80;45.70;;;;;;4988279;28;45031;-62
2023/04/05 06:44:50;;;;;;;4.25;1.42;;;16.90;45.60;;;;;;4977491;28;46304;-62
2023/04/05 06:47:15;;;;;;;3.22;1.33;;;17.10;45.60;;;;;;4965421;28;47932;-63
2023/04/05 06:49:41;;;;;;;2.55;1.30;;;17.20;45.60;;;;;;4970040;28;45586;-62
2023/04/05 06:52:07;;;;;;;3.65;1.60;;;17.40;45.60;;;;;;4953613;28;45636;-61
2023/04/05 06:54:33;;;;;;;2.92;1.30;;;17.50;45.40;;;;;;4976390;28;46978;-64
2023/04/05 06:56:59;;;;;;;1.67;1.00;;;17.60;45.30;;;;;;4981818;28;45256;-63
2023/04/05 06:59:24;;;;;;;2.20;1.20;;;17.80;45.30;;;;;;4990885;28;45254;-59
2023/04/05 07:01:50;;;;;;;3.00;1.30;;;17.90;45.20;;;;;;4982162;28;46582;-62
2023/04/05 07:04:15;;;;;;;2.03;1.30;;;18.00;45.10;;;;;;4978119;28;46579;-62
2023/04/05 07:06:41;;;;;;;1.90;1.02;;;18.20;45.00;;;;;;4982173;28;46510;-60
2023/04/05 07:09:06;;;;;;;1.77;1.15;;;18.30;45.00;;;;;;4955273;28;45545;-62
2023/04/05 07:11:32;;;;;;;1.77;1.20;;;18.40;44.90;;;;;;4985310;28;45479;-61
2023/04/05 07:13:58;;;;;;;2.92;1.48;;;18.40;45.00;;;;;;4993925;28;46364;-62
2023/04/05 07:16:24;;;;;;;1.33;1.00;;;18.40;45.10;;;;;;4984198;28;45254;-62
2023/04/05 07:18:50;;;;;;;3.53;1.30;;;18.50;45.10;;;;;;4968479;28;45359;-61
2023/04/05 07:21:16;;;;;;;1.05;0.88;;;18.60;45.00;;;;;;4971588;28;45377;-61
2023/04/05 07:23:41;;;;;;;7.22;1.17;;;18.80;44.90;;;;;;4969362;28;45546;-63
2023/04/05 07:26:07;;;;;;;1.85;1.10;;;18.90;44.90;;;;;;4969697;28;44955;-62
2023/04/05 07:28:34;;;;;;;2.20;1.38;;;19.00;44.80;;;;;;4970938;28;44950;-64
2023/04/05 07:31:00;;;;;;;2.42;1.33;;;19.10;44.70;;;;;;4933481;28;45721;-65
2023/04/05 07:33:26;;;;;;;1.20;0.80;;;19.20;44.80;;;;;;4998233;28;45349;-63
2023/04/05 07:35:55;;;;;;;1.17;0.90;;;19.30;44.70;;;;;;4970062;28;45548;-64
2023/04/05 07:38:21;;;;;;;1.85;1.15;;;19.40;44.50;;;;;;4995226;28;45465;-63
2023/04/05 07:40:48;;;;;;;1.85;1.15;;;19.50;44.50;;;;;;4968328;28;46139;-63
2023/04/05 07:43:14;;;;;;;1.52;1.00;;;19.60;44.50;;;;;;4991679;28;46375;-62
2023/04/05 07:45:40;;;;;;;1.85;1.00;;;19.70;44.40;;;;;;4965180;28;45664;-63
2023/04/05 07:48:05;;;;;;;1.33;1.08;;;19.80;44.40;;;;;;4965114;28;45655;-65
2023/04/05 07:50:31;;;;;;;1.73;1.10;;;19.90;44.30;;;;;;4984728;28;45097;-64
2023/04/05 07:52:56;;;;;;;1.92;0.88;;;20.10;44.30;;;;;;4933415;28;47546;-65
2023/04/05 07:55:22;;;;;;;1.02;0.82;;;20.10;44.20;;;;;;4981229;28;45479;-65
2023/04/05 07:57:47;;;;;;;2.45;1.25;;;20.20;44.20;;;;;;4989887;28;45170;-65
2023/04/05 08:00:14;;;;;;;2.05;1.23;;;20.20;44.20;;;;;;4949444;28;44896;-62
2023/04/05 08:02:40;;;;;;;1.65;0.93;;;20.30;44.30;;;;;;4938013;28;45491;-63
2023/04/05 08:05:06;;;;;;;1.77;1.02;;;20.40;44.20;;;;;;4958535;28;45588;-63
2023/04/05 08:07:31;;;;;;;1.45;0.98;;;20.40;44.10;;;;;;4955537;28;45376;-63
2023/04/05 08:09:58;;;;;;;2.80;1.50;;;20.50;44.10;;;;;;4966462;28;45643;-65
2023/04/05 08:12:25;;;;;;;2.08;1.20;;;20.50;44.10;;;;;;4986170;28;45283;-65
2023/04/05 08:14:51;;;;;;;3.38;1.38;;;20.60;44.20;;;;;;4962079;28;45531;-64
2023/04/05 08:17:16;;;;;;;1.15;0.85;;;20.60;44.10;;;;;;4979019;28;45510;-68
2023/04/05 08:19:42;;;;;;;0.77;0.68;;;20.70;44.10;;;;;;4981986;28;45268;-65
2023/04/05 08:22:08;;;;;;;1.13;0.80;;;20.70;44.10;;;;;;4971568;28;47333;-64
2023/04/05 08:24:33;;;;;;;1.20;0.90;;;20.80;44.10;;;;;;4971969;28;45456;-64
2023/04/05 08:26:59;;;;;;;1.90;1.00;;;20.80;44.00;;;;;;4967602;28;45520;-65
2023/04/05 08:29:25;;;;;;;1.25;0.90;;;20.90;44.10;;;;;;4990330;28;45445;-63
2023/04/05 08:31:51;;;;;;;4.45;1.00;;;20.90;44.10;;;;;;4983468;28;45387;-64
2023/04/05 08:34:16;;;;;;;1.73;1.10;;;20.90;44.10;;;;;;4987959;28;44763;-64
2023/04/05 08:36:42;;;;;;;1.38;0.85;;;21.00;44.10;;;;;;4986252;28;45658;-64
2023/04/05 08:39:07;;;;;;;1.67;0.75;;;21.00;44.00;;;;;;4967961;28;45443;-64
2023/04/05 08:41:39;;;;;;;2.25;0.73;;;21.10;44.00;;;;;;4979359;28;45425;-63
2023/04/05 08:44:05;;;;;;;1.33;0.70;;;21.20;44.00;;;;;;4961871;28;45322;-64
2023/04/05 08:46:32;;;;;;;1.10;0.80;;;21.20;43.90;;;;;;4967800;28;45198;-64
2023/04/05 08:48:58;;;;;;;1.27;0.82;;;21.30;44.00;;;;;;4982040;28;46029;-63
2023/04/05 08:51:25;;;;;;;2.53;1.00;;;21.40;43.90;;;;;;4982027;28;45398;-60
2023/04/05 08:53:50;;;;;;;1.77;1.17;;;21.40;43.80;;;;;;4978904;28;45238;-59
2023/04/05 08:56:19;;;;;;;1.42;0.88;;;21.50;43.80;;;;;;4967434;28;45065;-61
2023/04/05 08:58:50;;;;;;;3.05;0.90;;;21.50;43.70;;;;;;4986677;28;45516;-63
2023/04/05 09:01:15;;;;;;;0.70;0.70;;;21.60;43.70;;;;;;4947235;28;47088;-62
2023/04/05 09:03:41;;;;;;;0.60;0.60;;;21.60;43.70;;;;;;4966144;28;45484;-61
2023/04/05 09:06:07;;;;;;;1.35;0.90;;;21.70;43.70;;;;;;4976055;28;44665;-59
2023/04/05 09:08:32;;;;;;;0.90;0.60;;;21.70;43.70;;;;;;4979350;28;45267;-60
2023/04/05 09:10:58;;;;;;;1.90;0.90;;;21.70;43.70;;;;;;4964493;28;45423;-61
2023/04/05 09:13:24;;;;;;;1.45;0.88;;;21.80;43.70;;;;;;4968713;28;45729;-61
2023/04/05 09:15:50;;;;;;;0.98;0.65;;;21.80;43.70;;;;;;4980066;28;44952;-63
2023/04/05 09:18:16;;;;;;;1.08;0.73;;;21.90;43.70;;;;;;4943628;28;46462;-65
2023/04/05 09:20:41;;;;;;;1.88;1.00;;;21.90;43.60;;;;;;4979213;28;46147;-62
2023/04/05 09:23:07;;;;;;;1.45;0.95;;;22.00;43.50;;;;;;4968575;28;45408;-62
2023/04/05 09:25:39;;;;;;;1.05;0.80;;;22.00;43.50;;;;;;4976808;28;45422;-62
2023/04/05 09:28:05;;;;;;;1.65;0.90;;;22.00;43.20;;;;;;4955946;28;45227;-64
2023/04/05 09:30:31;;;;;;;1.17;0.88;;;22.00;43.40;;;;;;4962084;28;45254;-63
2023/04/05 09:32:57;;;;;;;1.05;0.80;;;22.10;43.40;;;;;;4949201;28;45524;-63
2023/04/05 09:35:30;;;;;;;1.42;0.90;;;22.10;43.30;;;;;;4971948;28;44858;-61
2023/04/05 09:38:00;;;;;;;1.17;0.50;;;22.20;43.10;;;;;;4986146;28;45548;-64
2023/04/05 09:40:47;;;;;;;1.80;0.90;;;22.20;43.30;;;;;;4947449;28;47701;-62
2023/04/05 09:43:33;;;;;;;1.33;0.80;;;22.20;42.90;;;;;;4979617;28;45542;-62
2023/04/05 09:45:59;;;;;;;0.77;0.77;;;22.30;43.30;;;;;;4976233;28;45195;-66
2023/04/05 09:49:00;;;;;;;4.80;1.23;;;22.30;43.10;;;;;;4952388;28;44967;-65
2023/04/05 09:51:36;;;;;;;1.48;0.70;;;22.40;42.70;;;;;;4904422;28;46362;-62
2023/04/05 09:54:06;;;;;;;2.72;0.77;;;22.40;43.00;;;;;;4975346;28;45627;-61
2023/04/05 09:56:36;;;;;;;1.92;1.00;;;22.50;43.10;;;;;;4963492;28;45489;-64
2023/04/05 09:59:05;;;;;;;1.02;0.60;;;22.50;43.10;;;;;;4985902;28;45893;-61
2023/04/05 10:01:31;;;;;;;2.13;0.65;;;22.60;43.10;;;;;;4972221;28;45445;-64
2023/04/05 10:03:57;;;;;;;0.98;0.70;;;22.60;43.10;;;;;;4963442;28;45263;-65
2023/04/05 10:06:23;;;;;;;0.88;0.75;;;22.60;43.00;;;;;;4985265;28;45742;-63
2023/04/05 10:08:48;;;;;;;1.10;0.70;;;22.70;43.00;;;;;;4961181;28;45532;-64
2023/04/05 10:11:17;;;;;;;1.67;0.50;;;22.70;42.90;;;;;;4932885;28;46355;-62
2023/04/05 10:13:42;;;;;;;1.90;0.90;;;22.80;43.00;;;;;;4955778;28;45205;-62
2023/04/05 10:16:10;;;;;;;1.08;0.90;;;22.80;43.00;;;;;;4952774;28;45252;-64
2023/04/05 10:18:40;;;;;;;0.60;0.55;;;22.80;42.90;;;;;;4966637;28;45290;-63
2023/04/05 10:21:06;;;;;;;1.10;0.60;;;22.80;42.70;;;;;;4952720;28;45335;-63
2023/04/05 10:23:33;;;;;;;2.05;0.63;;;22.90;42.90;;;;;;4956864;28;45495;-62
2023/04/05 10:26:13;;;;;;;0.65;0.50;;;22.90;42.80;;;;;;4964249;28;45111;-64
2023/04/05 10:28:42;;;;;;;1.35;0.70;;;22.90;42.50;;;;;;4954466;28;45196;-63
2023/04/05 10:31:27;;;;;;;0.90;0.80;;;23.00;42.70;;;;;;4960320;28;45565;-63
2023/04/05 10:34:06;;;;;;;1.17;0.73;;;23.00;42.40;;;;;;4966305;28;44773;-63
2023/04/05 10:36:41;;;;;;;1.13;0.80;;;23.00;42.40;;;;;;4965022;28;45311;-65
2023/04/05 10:39:29;;;;;;;0.60;0.50;;;23.10;42.60;;;;;;4990611;28;45215;-63
2023/04/05 10:42:00;;;;;;;1.17;0.80;;;23.10;42.20;;;;;;4987255;28;45518;-63
2023/04/05 10:44:26;;;;;;;0.95;0.80;;;23.20;42.50;;;;;;4963059;28;45015;-63
2023/04/05 10:46:52;;;;;;;3.13;0.80;;;23.20;42.50;;;;;;4949000;28;45438;-63
2023/04/05 10:49:22;;;;;;;1.27;0.75;;;23.20;42.50;;;;;;4955895;28;45421;-62
2023/04/05 10:51:47;;;;;;;1.30;0.60;;;23.20;42.40;;;;;;4973087;28;45432;-66
2023/04/05 10:54:15;;;;;;;1.42;0.80;;;23.20;42.50;;;;;;4974249;28;45582;-64
2023/04/05 10:56:41;;;;;;;0.75;0.52;;;23.20;42.50;;;;;;4939069;28;45097;-65
2023/04/05 10:59:07;;;;;;;1.63;0.90;;;23.10;42.50;;;;;;4941303;28;45569;-61
2023/04/05 11:01:32;;;;;;;1.30;0.90;;;23.10;42.50;;;;;;4959160;28;45686;-63
2023/04/05 11:04:10;;;;;;;1.27;0.57;;;23.00;42.50;;;;;;4978369;28;45355;-63
2023/04/05 11:06:36;;;;;;;1.70;0.82;;;23.00;42.40;;;;;;4969046;28;44717;-62
2023/04/05 11:09:15;;;;;;;1.00;0.70;;;22.90;42.70;;;;;;4977880;28;45582;-64
2023/04/05 11:11:42;;;;;;;2.22;0.70;;;22.80;42.50;;;;;;4968457;28;46740;-63
2023/04/05 11:14:42;;;;;;;1.25;0.68;;;22.70;42.80;;;;;;4975288;28;44669;-62
2023/04/05 11:17:26;;;;;;;1.13;0.70;;;22.70;42.50;;;;;;4950576;28;45422;-63
2023/04/05 11:20:01;;;;;;;1.05;0.70;;;22.60;42.80;;;;;;4949958;28;45486;-64
2023/04/05 11:22:28;;;;;;;1.00;0.73;;;22.60;43.00;;;;;;4972981;28;45696;-64
2023/04/05 11:24:56;;;;;;;2.78;0.80;;;22.60;43.20;;;;;;4977872;28;44743;-63
2023/04/05 11:27:32;;;;;;;1.38;0.93;;;22.50;43.20;;;;;;4970627;28;45125;-63
2023/04/05 11:29:59;;;;;;;1.75;0.73;;;22.50;43.30;;;;;;4973804;28;44694;-63
2023/04/05 11:32:43;;;;;;;1.10;0.80;;;22.40;43.40;;;;;;4948437;28;45571;-62
2023/04/05 11:35:22;;;;;;;0.98;0.75;;;22.40;43.40;;;;;;4943612;28;45130;-69
2023/04/05 11:38:00;;;;;;;0.90;0.70;;;22.30;43.50;;;;;;4956643;28;45247;-62
2023/04/05 11:40:26;;;;;;;1.08;0.70;;;22.30;43.50;;;;;;4969675;28;45314;-63
2023/04/05 11:42:59;;;;;;;1.77;0.70;;;22.20;43.70;;;;;;4959077;28;46727;-62
2023/04/05 11:45:25;;;;;;;1.63;0.60;;;22.20;43.70;;;;;;4965391;28;45222;-62
2023/04/05 11:47:50;;;;;;;2.00;0.70;;;22.20;43.80;;;;;;4985790;28;44759;-64
2023/04/05 11:50:16;;;;;;;0.80;0.77;;;22.10;43.90;;;;;;4978355;28;45570;-64
2023/04/05 11:52:41;;;;;;;1.15;0.77;;;22.10;43.90;;;;;;4974646;28;45454;-63
2023/04/05 11:55:07;;;;;;;0.77;0.70;;;22.10;44.00;;;;;;4973731;28;45188;-64
2023/04/05 11:57:35;;;;;;;1.38;0.70;;;22.00;44.00;;;;;;4971559;28;45183;-64
2023/04/05 12:00:01;;;;;;;1.25;0.70;;;22.00;44.10;;;;;;4975479;28;45087;-63
2023/04/05 12:02:26;;;;;;;0.77;0.73;;;22.00;44.20;;;;;;4980930;28;45870;-63
2023/04/05 12:04:58;;;;;;;1.50;1.00;;;21.90;44.20;;;;;;4990477;28;45224;-65
2023/04/05 12:07:26;;;;;;;0.75;0.70;;;21.90;44.20;;;;;;4958905;28;45141;-64
2023/04/05 12:10:07;;;;;;;0.98;0.63;;;21.90;44.30;;;;;;4990795;28;45662;-67
2023/04/05 12:12:37;;;;;;;1.55;0.80;;;21.80;44.20;;;;;;4993157;28;46030;-62
2023/04/05 12:15:07;;;;;;;0.95;0.85;;;21.80;44.40;;;;;;4965599;28;45255;-66
2023/04/05 12:17:37;;;;;;;1.40;0.70;;;21.80;44.40;;;;;;4987966;28;45127;-60
2023/04/05 12:20:05;;;;;;;0.95;0.80;;;21.80;44.50;;;;;;4993443;28;45271;-66
2023/04/05 12:22:31;;;;;;;1.98;0.82;;;21.70;44.60;;;;;;4929496;28;45452;-60
2023/04/05 12:24:56;;;;;;;1.50;0.82;;;21.70;44.60;;;;;;4972851;28;45737;-64
2023/04/05 12:27:22;;;;;;;0.90;0.70;;;21.60;44.60;;;;;;4974512;28;45254;-63
2023/04/05 12:30:20;;;;;;;1.33;1.00;;;21.60;44.70;;;;;;4937315;28;45661;-63
2023/04/05 12:32:51;;;;;;;1.25;0.80;;;21.60;44.80;;;;;;4963819;28;45836;-64
2023/04/05 12:35:18;;;;;;;1.67;0.52;;;21.60;44.90;;;;;;4981013;28;45721;-62
2023/04/05 12:37:45;;;;;;;1.17;0.80;;;21.50;44.90;;;;;;4973280;28;44972;-63
2023/04/05 12:40:11;;;;;;;0.82;0.80;;;21.50;44.90;;;;;;4967152;28;45505;-63
2023/04/05 12:42:37;;;;;;;0.85;0.75;;;21.50;44.90;;;;;;4975844;28;45687;-64
2023/04/05 12:45:10;;;;;;;1.10;0.63;;;21.40;45.00;;;;;;4945090;28;45609;-68
2023/04/05 12:47:41;;;;;;;1.05;0.75;;;21.40;45.10;;;;;;4948299;28;45388;-65
2023/04/05 12:50:14;;;;;;;1.83;0.70;;;21.40;45.10;;;;;;4972500;28;45048;-63
2023/04/05 12:52:59;;;;;;;0.77;0.70;;;21.40;45.20;;;;;;4949836;28;47147;-62
2023/04/05 12:55:29;;;;;;;0.50;0.47;;;21.40;45.30;;;;;;4991855;28;45319;-64
2023/04/05 12:57:58;;;;;;;0.93;0.70;;;21.30;45.20;;;;;;4971697;28;45421;-68
2023/04/05 13:00:25;;;;;;;0.90;0.80;;;21.30;45.30;;;;;;4969859;28;45317;-61
2023/04/05 13:02:52;;;;;;;1.35;0.95;;;21.30;45.30;;;;;;4976770;28;46547;-62
2023/04/05 13:05:28;;;;;;;0.98;0.60;;;21.30;45.40;;;;;;4979075;28;45500;-59
2023/04/05 13:07:54;;;;;;;1.02;0.70;;;21.20;45.40;;;;;;4961524;28;45288;-63
2023/04/05 13:10:20;;;;;;;1.60;0.80;;;21.20;45.40;;;;;;4952460;28;45358;-61
2023/04/05 13:12:46;;;;;;;1.27;0.82;;;21.20;45.50;;;;;;4962351;28;46126;-62
2023/04/05 13:15:14;;;;;;;3.63;0.88;;;21.20;45.50;;;;;;4990600;28;45296;-56
2023/04/05 13:17:41;;;;;;;0.65;0.50;;;21.10;45.60;;;;;;4974560;28;45286;-60
2023/04/05 13:20:07;;;;;;;1.23;0.70;;;21.10;45.70;;;;;;4985965;28;45713;-66
2023/04/05 13:22:33;;;;;;;0.57;0.47;;;21.10;45.70;;;;;;4991269;28;45681;-58
2023/04/05 13:24:58;;;;;;;1.10;0.70;;;21.00;45.70;;;;;;4974418;28;44916;-58
2023/04/05 13:27:24;;;;;;;1.23;0.63;;;21.10;45.80;;;;;;4984218;28;46276;-59
2023/04/05 13:29:49;;;;;;;1.17;0.60;;;21.00;45.80;;;;;;4978561;28;44868;-58
2023/04/05 13:32:15;;;;;;;2.15;0.60;;;21.00;45.90;;;;;;4977612;28;46146;-58
2023/04/05 13:34:40;;;;;;;1.30;0.77;;;21.00;45.90;;;;;;4974710;28;45191;-61
2023/04/05 13:37:06;;;;;;;1.20;0.75;;;21.00;45.90;;;;;;4983421;28;45191;-58
2023/04/05 13:39:32;;;;;;;4.45;0.60;;;21.00;46.00;;;;;;4970052;28;45291;-61
2023/04/05 13:41:57;;;;;;;1.17;0.70;;;20.90;46.00;;;;;;4978994;28;46392;-65
2023/04/05 13:44:23;;;;;;;1.13;0.73;;;20.90;46.00;;;;;;4978869;28;45358;-59
2023/04/05 13:46:49;;;;;;;0.75;0.65;;;20.90;46.10;;;;;;4982419;28;45461;-60
2023/04/05 13:49:14;;;;;;;0.77;0.73;;;20.90;46.10;;;;;;4997794;28;45321;-63
2023/04/05 13:51:40;;;;;;;2.90;0.90;;;20.80;46.20;;;;;;4986146;28;45497;-61
2023/04/05 13:54:10;;;;;;;0.90;0.70;;;20.80;46.30;;;;;;4968277;28;45642;-60
2023/04/05 13:56:39;;;;;;;1.13;0.80;;;20.80;46.30;;;;;;4954160;28;45378;-59
2023/04/05 13:59:04;;;;;;;1.65;0.70;;;20.80;46.30;;;;;;4979697;28;45753;-62
2023/04/05 14:01:33;;;;;;;0.80;0.70;;;20.80;46.40;;;;;;4975232;28;45959;-63
2023/04/05 14:03:59;;;;;;;0.70;0.70;;;20.70;46.40;;;;;;4962821;28;45326;-66
2023/04/05 14:06:25;;;;;;;3.28;0.70;;;20.70;46.40;;;;;;4981968;28;44701;-61
2023/04/05 14:08:54;;;;;;;2.50;0.70;;;20.70;46.40;;;;;;4992277;28;45329;-63
2023/04/05 14:11:21;;;;;;;1.25;0.90;;;20.70;46.50;;;;;;4971947;28;45273;-59
2023/04/05 14:13:47;;;;;;;1.35;0.93;;;20.70;46.50;;;;;;4973087;28;45163;-64
2023/04/05 14:16:12;;;;;;;1.10;0.70;;;20.70;46.60;;;;;;4968490;28;45379;-63
2023/04/05 14:18:38;;;;;;;1.33;0.63;;;20.60;46.50;;;;;;4975838;28;45112;-63
2023/04/05 14:21:04;;;;;;;1.00;0.60;;;20.60;46.60;;;;;;4966397;28;46449;-65
2023/04/05 14:23:29;;;;;;;1.45;0.63;;;20.60;46.60;;;;;;4973262;28;45703;-65
2023/04/05 14:25:55;;;;;;;0.93;0.68;;;20.60;47.20;;;;;;4956559;28;45324;-63
2023/04/05 14:28:20;;;;;;;1.10;0.82;;;20.60;46.70;;;;;;4990926;28;45625;-63
2023/04/05 14:30:46;;;;;;;1.05;0.70;;;20.60;46.70;;;;;;4971797;28;48438;-66
2023/04/05 14:33:13;;;;;;;0.90;0.75;;;20.60;46.80;;;;;;4970266;28;45335;-64
2023/04/05 14:35:39;;;;;;;1.42;0.88;;;20.50;46.70;;;;;;4943619;28;45346;-64
2023/04/05 14:38:05;;;;;;;1.77;1.15;;;20.50;46.80;;;;;;4972239;28;45517;-64
2023/04/05 14:40:30;;;;;;;3.00;0.60;;;20.50;46.80;;;;;;4955408;28;46000;-64
2023/04/05 14:42:57;;;;;;;1.83;0.80;;;20.50;46.90;;;;;;4992908;28;45411;-65
2023/04/05 14:45:25;;;;;;;1.42;0.70;;;20.50;46.90;;;;;;4972561;28;44808;-64
2023/04/05 14:47:51;;;;;;;0.98;0.80;;;20.40;46.90;;;;;;4972537;28;45319;-64
2023/04/05 14:50:17;;;;;;;0.88;0.70;;;20.40;46.90;;;;;;4969256;28;45228;-64
2023/04/05 14:52:44;;;;;;;1.33;0.80;;;20.40;46.90;;;;;;4968330;28;44955;-65
2023/04/05 14:55:12;;;;;;;1.98;0.90;;;20.30;47.00;;;;;;4965019;28;45099;-66
2023/04/05 14:57:38;;;;;;;1.20;0.80;;;20.30;47.00;;;;;;4969849;28;45177;-64
2023/04/05 15:00:10;;;;;;;1.45;0.70;;;20.30;47.10;;;;;;4954554;28;45191;-67
2023/04/05 15:02:39;;;;;;;0.88;0.70;;;20.30;47.10;;;;;;4967631;28;45545;-64
2023/04/05 15:05:05;;;;;;;0.75;0.60;;;20.20;47.20;;;;;;4973267;28;45276;-65
2023/04/05 15:07:31;;;;;;;1.02;0.63;;;20.20;47.70;;;;;;4974166;28;45535;-63
2023/04/05 15:09:56;;;;;;;0.60;0.60;;;20.20;47.20;;;;;;4993830;28;45638;-65
2023/04/05 15:12:22;;;;;;;0.60;0.50;;;20.20;47.30;;;;;;4955797;28;45318;-64
2023/04/05 15:14:49;;;;;;;0.80;0.68;;;20.10;47.20;;;;;;4996701;28;45288;-63
2023/04/05 15:17:15;;;;;;;0.90;0.73;;;20.10;47.30;;;;;;4972974;28;45651;-64
2023/04/05 15:19:41;;;;;;;0.82;0.63;;;20.10;47.30;;;;;;4991547;28;45446;-64
2023/04/05 15:22:06;;;;;;;1.55;0.82;;;20.10;47.40;;;;;;4968077;28;45471;-64
2023/04/05 15:24:32;;;;;;;1.05;0.63;;;20.10;47.40;;;;;;4975780;28;45201;-65
2023/04/05 15:27:01;;;;;;;1.00;0.63;;;20.00;47.40;;;;;;4970499;28;46164;-64
2023/04/05 15:29:29;;;;;;;1.00;0.68;;;20.00;47.40;;;;;;4992890;28;46414;-64
2023/04/05 15:31:56;;;;;;;0.88;0.70;;;20.00;47.40;;;;;;4984455;28;45132;-65
2023/04/05 15:34:22;;;;;;;1.25;0.63;;;20.00;47.50;;;;;;4967955;28;45362;-64
2023/04/05 15:36:48;;;;;;;0.73;0.70;;;20.00;47.50;;;;;;4981834;28;45207;-65
2023/04/05 15:39:14;;;;;;;1.13;0.70;;;19.90;47.50;;;;;;4983447;28;45381;-65
2023/04/05 15:41:40;;;;;;;1.70;0.90;;;19.90;47.50;;;;;;4960911;28;45467;-64
2023/04/05 15:44:05;;;;;;;0.95;0.63;;;19.90;47.50;;;;;;4979478;28;45410;-65
2023/04/05 15:46:31;;;;;;;1.25;0.70;;;19.90;47.50;;;;;;4967892;28;45655;-65
2023/04/05 15:48:57;;;;;;;0.70;0.50;;;19.90;47.50;;;;;;4954287;28;47051;-65